createdAt,value
2017-09-17T00:00:53.838Z,0
2017-09-17T00:02:08.167Z,0
2017-09-17T00:03:22.401Z,0
2017-09-17T00:04:37.255Z,0
2017-09-17T00:05:51.615Z,0
2017-09-17T00:07:06.309Z,0
2017-09-17T00:08:20.848Z,0
2017-09-17T00:09:34.455Z,0
2017-09-17T00:10:48.405Z,0
2017-09-17T00:12:02.964Z,0
2017-09-17T00:13:17.127Z,0
2017-09-17T00:14:30.768Z,0
2017-09-17T00:15:45.466Z,0
2017-09-17T00:16:59.969Z,0
2017-09-17T00:18:13.892Z,0
2017-09-17T00:19:27.902Z,0
2017-09-17T00:20:42.217Z,0
2017-09-17T00:21:56.070Z,0
2017-09-17T00:23:10.468Z,0
2017-09-17T00:24:24.722Z,0
2017-09-17T00:25:38.380Z,0
2017-09-17T00:26:52.861Z,0
2017-09-17T00:28:06.657Z,0
2017-09-17T00:29:20.919Z,0
2017-09-17T00:30:35.519Z,0
2017-09-17T00:31:50.518Z,0
2017-09-17T00:33:04.628Z,0
2017-09-17T00:34:18.253Z,0
2017-09-17T00:35:31.946Z,0
2017-09-17T00:36:46.676Z,0
2017-09-17T00:38:00.286Z,0
2017-09-17T00:39:14.511Z,0
2017-09-17T00:40:28.518Z,0
2017-09-17T00:41:58.814Z,0
2017-09-17T00:43:12.917Z,0
2017-09-17T00:44:28.167Z,0
2017-09-17T00:45:43.717Z,0
2017-09-17T00:46:57.361Z,0
2017-09-17T00:48:11.407Z,0
2017-09-17T00:49:25.400Z,0
2017-09-17T00:50:39.897Z,0
2017-09-17T00:51:54.194Z,0
2017-09-17T00:53:08.158Z,0
2017-09-17T00:54:22.167Z,0
2017-09-17T00:55:36.488Z,0
2017-09-17T00:56:50.866Z,0
2017-09-17T00:58:04.947Z,0
2017-09-17T00:59:19.982Z,0
2017-09-17T01:00:34.373Z,0
2017-09-17T01:01:48.755Z,0
2017-09-17T01:03:03.615Z,0
2017-09-17T01:04:17.209Z,0
2017-09-17T01:05:30.989Z,0
2017-09-17T01:06:45.816Z,0
2017-09-17T01:07:59.730Z,0
2017-09-17T01:09:14.279Z,0
2017-09-17T01:10:28.586Z,0
2017-09-17T01:11:42.330Z,0
2017-09-17T01:12:56.739Z,0
2017-09-17T01:14:10.330Z,0
2017-09-17T01:15:23.883Z,0
2017-09-17T01:16:38.017Z,0
2017-09-17T01:17:52.087Z,0
2017-09-17T01:19:05.976Z,0
2017-09-17T01:20:19.627Z,0
2017-09-17T01:21:33.505Z,0
2017-09-17T01:22:47.419Z,0
2017-09-17T01:24:01.603Z,0
2017-09-17T01:25:15.456Z,0
2017-09-17T01:26:29.023Z,0
2017-09-17T01:27:42.608Z,0
2017-09-17T01:28:56.582Z,0
2017-09-17T01:30:10.198Z,0
2017-09-17T01:31:24.128Z,0
2017-09-17T01:32:37.719Z,0
2017-09-17T01:33:51.433Z,0
2017-09-17T01:35:05.100Z,0
2017-09-17T01:36:20.315Z,0
2017-09-17T01:37:35.366Z,0
2017-09-17T01:38:50.016Z,0
2017-09-17T01:40:03.850Z,0
2017-09-17T01:41:17.903Z,0
2017-09-17T01:42:31.803Z,0
2017-09-17T01:43:46.096Z,0
2017-09-17T01:45:00.022Z,0
2017-09-17T01:46:14.095Z,0
2017-09-17T01:47:28.035Z,0
2017-09-17T01:48:42.648Z,0
2017-09-17T01:49:56.928Z,0
2017-09-17T01:51:10.512Z,0
2017-09-17T01:52:24.120Z,0
2017-09-17T01:53:38.169Z,0
2017-09-17T01:54:51.856Z,0
2017-09-17T01:56:06.527Z,0
2017-09-17T01:57:20.899Z,0
2017-09-17T01:58:34.466Z,0
2017-09-17T01:59:48.501Z,0
2017-09-17T02:01:02.141Z,0
2017-09-17T02:02:30.552Z,0
2017-09-17T02:03:45.132Z,0
2017-09-17T02:04:59.516Z,0
2017-09-17T02:06:13.090Z,0
2017-09-17T02:07:27.146Z,0
2017-09-17T02:08:41.098Z,0
2017-09-17T02:09:54.672Z,0
2017-09-17T02:11:08.242Z,0
2017-09-17T02:12:41.423Z,0
2017-09-17T02:13:55.678Z,0
2017-09-17T02:15:09.660Z,0
2017-09-17T02:16:23.248Z,0
2017-09-17T02:17:38.046Z,0
2017-09-17T02:18:52.033Z,0
2017-09-17T02:20:06.082Z,0
2017-09-17T02:21:19.722Z,0
2017-09-17T02:22:33.268Z,0
2017-09-17T02:23:46.910Z,0
2017-09-17T02:25:01.163Z,0
2017-09-17T02:26:15.390Z,0
2017-09-17T02:27:29.603Z,0
2017-09-17T02:28:44.298Z,0
2017-09-17T02:29:58.834Z,0
2017-09-17T02:31:12.740Z,0
2017-09-17T02:32:26.818Z,0
2017-09-17T02:33:40.560Z,0
2017-09-17T02:34:54.367Z,0
2017-09-17T02:36:08.034Z,0
2017-09-17T02:37:21.604Z,0
2017-09-17T02:38:35.498Z,0
2017-09-17T02:39:49.085Z,0
2017-09-17T02:41:03.077Z,0
2017-09-17T02:42:16.704Z,0
2017-09-17T02:43:30.305Z,0
2017-09-17T02:44:44.629Z,0
2017-09-17T02:45:58.249Z,0
2017-09-17T02:47:12.134Z,0
2017-09-17T02:48:25.890Z,0
2017-09-17T02:49:40.149Z,0
2017-09-17T02:50:54.401Z,0
2017-09-17T02:52:08.703Z,0
2017-09-17T02:53:22.587Z,0
2017-09-17T02:54:36.197Z,0
2017-09-17T02:55:49.764Z,0
2017-09-17T02:57:03.848Z,0
2017-09-17T02:58:18.235Z,0
2017-09-17T02:59:31.868Z,0
2017-09-17T03:00:45.492Z,0
2017-09-17T03:01:59.075Z,0
2017-09-17T03:03:13.116Z,0
2017-09-17T03:04:27.073Z,0
2017-09-17T03:05:40.999Z,0
2017-09-17T03:06:54.956Z,0
2017-09-17T03:08:08.880Z,0
2017-09-17T03:09:23.088Z,0
2017-09-17T03:10:37.600Z,0
2017-09-17T03:11:52.165Z,0
2017-09-17T03:13:06.377Z,0
2017-09-17T03:14:20.007Z,0
2017-09-17T03:15:33.904Z,0
2017-09-17T03:16:48.202Z,0
2017-09-17T03:18:02.011Z,0
2017-09-17T03:19:15.614Z,0
2017-09-17T03:20:30.135Z,0
2017-09-17T03:21:44.541Z,0
2017-09-17T03:22:58.638Z,0
2017-09-17T03:24:13.019Z,0
2017-09-17T03:25:27.020Z,0
2017-09-17T03:26:40.686Z,0
2017-09-17T03:27:54.718Z,0
2017-09-17T03:29:08.932Z,0
2017-09-17T03:30:22.495Z,0
2017-09-17T03:31:36.713Z,0
2017-09-17T03:32:51.176Z,0
2017-09-17T03:34:05.047Z,0
2017-09-17T03:35:18.674Z,0
2017-09-17T03:36:32.243Z,0
2017-09-17T03:37:46.576Z,0
2017-09-17T03:39:01.124Z,0
2017-09-17T03:40:15.899Z,0
2017-09-17T03:41:29.541Z,0
2017-09-17T03:42:43.509Z,0
2017-09-17T03:43:57.744Z,0
2017-09-17T03:45:11.758Z,0
2017-09-17T03:46:25.953Z,0
2017-09-17T03:47:39.978Z,0
2017-09-17T03:48:54.237Z,0
2017-09-17T03:50:08.206Z,0
2017-09-17T03:51:21.944Z,0
2017-09-17T03:52:36.485Z,0
2017-09-17T03:53:50.637Z,0
2017-09-17T03:55:04.774Z,0
2017-09-17T03:56:18.843Z,0
2017-09-17T03:57:32.726Z,0
2017-09-17T03:58:47.008Z,0
2017-09-17T04:00:01.169Z,0
2017-09-17T04:01:15.565Z,0
2017-09-17T04:02:29.176Z,0
2017-09-17T04:03:42.962Z,0
2017-09-17T04:04:57.650Z,0
2017-09-17T04:06:11.235Z,0
2017-09-17T04:07:25.441Z,0
2017-09-17T04:08:39.642Z,0
2017-09-17T04:09:53.955Z,0
2017-09-17T04:11:08.491Z,0
2017-09-17T04:12:22.743Z,0
2017-09-17T04:13:36.843Z,0
2017-09-17T04:14:51.127Z,0
2017-09-17T04:16:05.050Z,0
2017-09-17T04:17:19.141Z,0
2017-09-17T04:18:32.764Z,0
2017-09-17T04:19:47.410Z,0
2017-09-17T04:21:01.116Z,0
2017-09-17T04:22:15.037Z,0
2017-09-17T04:23:28.947Z,0
2017-09-17T04:24:42.511Z,0
2017-09-17T04:25:57.116Z,0
2017-09-17T04:27:11.208Z,0
2017-09-17T04:28:25.281Z,0
2017-09-17T04:29:39.142Z,0
2017-09-17T04:30:53.170Z,0
2017-09-17T04:32:06.749Z,0
2017-09-17T04:33:21.793Z,0
2017-09-17T04:34:35.881Z,0
2017-09-17T04:35:49.765Z,0
2017-09-17T04:37:03.675Z,0
2017-09-17T04:38:18.079Z,0
2017-09-17T04:39:31.729Z,4
2017-09-17T04:40:46.994Z,4
2017-09-17T04:42:01.208Z,4
2017-09-17T04:43:15.114Z,4
2017-09-17T04:44:29.623Z,4
2017-09-17T04:45:43.533Z,8
2017-09-17T04:46:58.404Z,4
2017-09-17T04:48:12.652Z,8
2017-09-17T04:49:26.661Z,8
2017-09-17T04:50:40.555Z,8
2017-09-17T04:51:54.495Z,12
2017-09-17T04:53:08.761Z,12
2017-09-17T04:54:22.692Z,16
2017-09-17T04:55:36.933Z,20
2017-09-17T04:56:51.124Z,20
2017-09-17T04:58:04.749Z,24
2017-09-17T04:59:19.128Z,28
2017-09-17T05:00:33.235Z,32
2017-09-17T05:01:47.898Z,36
2017-09-17T05:03:01.601Z,40
2017-09-17T05:04:15.165Z,48
2017-09-17T05:05:29.059Z,56
2017-09-17T05:06:43.336Z,60
2017-09-17T05:07:56.948Z,72
2017-09-17T05:09:10.539Z,80
2017-09-17T05:10:24.124Z,96
2017-09-17T05:11:37.758Z,104
2017-09-17T05:12:52.196Z,116
2017-09-17T05:14:06.293Z,128
2017-09-17T05:15:21.129Z,144
2017-09-17T05:16:36.414Z,160
2017-09-17T05:17:50.702Z,176
2017-09-17T05:19:05.156Z,188
2017-09-17T05:20:19.121Z,180
2017-09-17T05:21:32.676Z,180
2017-09-17T05:22:46.311Z,184
2017-09-17T05:24:00.331Z,192
2017-09-17T05:25:15.228Z,204
2017-09-17T05:27:00.860Z,212
2017-09-17T05:28:14.791Z,224
2017-09-17T05:29:28.433Z,236
2017-09-17T05:30:43.035Z,248
2017-09-17T05:31:57.743Z,260
2017-09-17T05:33:11.723Z,260
2017-09-17T05:34:25.978Z,268
2017-09-17T05:35:40.098Z,272
2017-09-17T05:36:54.400Z,284
2017-09-17T05:38:08.438Z,296
2017-09-17T05:39:22.321Z,296
2017-09-17T05:40:36.232Z,284
2017-09-17T05:41:50.248Z,280
2017-09-17T05:43:04.414Z,272
2017-09-17T05:44:17.988Z,276
2017-09-17T05:45:32.165Z,288
2017-09-17T05:46:46.522Z,304
2017-09-17T05:48:00.748Z,320
2017-09-17T05:49:15.510Z,348
2017-09-17T05:50:29.068Z,368
2017-09-17T05:51:42.663Z,380
2017-09-17T05:52:56.889Z,404
2017-09-17T05:54:11.176Z,428
2017-09-17T05:55:25.369Z,456
2017-09-17T05:56:38.944Z,488
2017-09-17T05:57:52.837Z,504
2017-09-17T05:59:06.636Z,516
2017-09-17T06:00:20.716Z,540
2017-09-17T06:01:34.612Z,572
2017-09-17T06:02:48.305Z,608
2017-09-17T06:04:01.940Z,628
2017-09-17T06:05:15.704Z,628
2017-09-17T06:06:29.795Z,644
2017-09-17T06:07:44.164Z,676
2017-09-17T06:08:57.799Z,728
2017-09-17T06:10:11.562Z,776
2017-09-17T06:11:25.957Z,816
2017-09-17T06:12:40.339Z,848
2017-09-17T06:13:54.268Z,880
2017-09-17T06:15:08.272Z,920
2017-09-17T06:16:21.850Z,948
2017-09-17T06:17:35.404Z,1000
2017-09-17T06:18:49.396Z,1064
2017-09-17T06:20:03.868Z,1156
2017-09-17T06:21:18.159Z,1264
2017-09-17T06:22:31.836Z,1304
2017-09-17T06:23:46.373Z,1360
2017-09-17T06:25:00.002Z,1392
2017-09-17T06:26:14.199Z,1444
2017-09-17T06:27:28.102Z,1508
2017-09-17T06:28:42.459Z,1588
2017-09-17T06:29:56.775Z,1632
2017-09-17T06:31:10.411Z,1660
2017-09-17T06:32:24.378Z,1672
2017-09-17T06:33:38.008Z,1644
2017-09-17T06:34:52.861Z,1660
2017-09-17T06:36:06.794Z,1680
2017-09-17T06:37:20.710Z,1716
2017-09-17T06:38:35.078Z,1736
2017-09-17T06:39:49.153Z,1744
2017-09-17T06:41:02.770Z,1736
2017-09-17T06:42:17.132Z,1692
2017-09-17T06:43:31.581Z,1660
2017-09-17T06:44:45.779Z,1660
2017-09-17T06:45:59.804Z,1628
2017-09-17T06:47:13.488Z,1564
2017-09-17T06:48:27.093Z,1552
2017-09-17T06:49:41.010Z,1532
2017-09-17T06:50:55.102Z,1524
2017-09-17T06:52:09.012Z,1644
2017-09-17T06:53:22.584Z,1808
2017-09-17T06:54:36.579Z,1944
2017-09-17T06:55:50.275Z,2048
2017-09-17T06:57:04.194Z,2116
2017-09-17T06:58:17.788Z,2140
2017-09-17T06:59:31.581Z,2128
2017-09-17T07:01:00.055Z,2136
2017-09-17T07:02:14.361Z,2180
2017-09-17T07:03:28.928Z,2180
2017-09-17T07:04:42.501Z,2116
2017-09-17T07:05:56.159Z,2044
2017-09-17T07:07:10.739Z,2044
2017-09-17T07:08:24.630Z,2104
2017-09-17T07:09:38.593Z,2168
2017-09-17T07:10:52.177Z,2148
2017-09-17T07:12:06.150Z,2036
2017-09-17T07:13:19.907Z,1984
2017-09-17T07:14:33.852Z,2060
2017-09-17T07:15:48.676Z,2176
2017-09-17T07:17:03.154Z,2260
2017-09-17T07:18:17.309Z,2364
2017-09-17T07:19:31.693Z,2484
2017-09-17T07:20:48.747Z,2576
2017-09-17T07:22:02.409Z,2632
2017-09-17T07:23:16.889Z,2700
2017-09-17T07:24:30.564Z,2772
2017-09-17T07:25:44.160Z,2804
2017-09-17T07:26:58.471Z,2832
2017-09-17T07:28:12.617Z,2808
2017-09-17T07:29:26.639Z,2800
2017-09-17T07:30:41.010Z,2844
2017-09-17T07:31:55.469Z,2820
2017-09-17T07:33:09.501Z,2788
2017-09-17T07:34:23.858Z,2784
2017-09-17T07:35:37.430Z,2800
2017-09-17T07:36:51.011Z,2740
2017-09-17T07:38:04.654Z,2680
2017-09-17T07:39:18.651Z,2628
2017-09-17T07:40:32.974Z,2680
2017-09-17T07:41:47.459Z,2768
2017-09-17T07:43:02.044Z,2688
2017-09-17T07:44:15.649Z,2768
2017-09-17T07:45:29.888Z,2904
2017-09-17T07:46:43.499Z,2896
2017-09-17T07:47:57.605Z,2764
2017-09-17T07:49:11.194Z,2676
2017-09-17T07:50:24.843Z,3160
2017-09-17T07:51:38.882Z,3332
2017-09-17T07:52:52.569Z,3556
2017-09-17T07:54:06.171Z,3776
2017-09-17T07:55:19.912Z,3760
2017-09-17T07:56:34.146Z,3644
2017-09-17T07:57:48.129Z,3716
2017-09-17T07:59:02.383Z,3384
2017-09-17T08:00:16.038Z,3128
2017-09-17T08:01:31.267Z,2968
2017-09-17T08:02:44.876Z,3052
2017-09-17T08:03:59.995Z,2916
2017-09-17T08:05:13.717Z,3028
2017-09-17T08:06:27.762Z,3192
2017-09-17T08:07:42.209Z,3180
2017-09-17T08:08:56.171Z,3316
2017-09-17T08:10:10.218Z,3292
2017-09-17T08:11:23.872Z,2984
2017-09-17T08:12:37.866Z,2484
2017-09-17T08:13:52.198Z,2552
2017-09-17T08:15:06.638Z,3528
2017-09-17T08:16:25.264Z,3940
2017-09-17T08:17:39.404Z,3464
2017-09-17T08:18:53.254Z,3512
2017-09-17T08:20:07.698Z,4400
2017-09-17T08:21:21.627Z,4532
2017-09-17T08:22:36.621Z,4508
2017-09-17T08:23:50.594Z,3728
2017-09-17T08:25:04.679Z,3064
2017-09-17T08:26:18.828Z,3612
2017-09-17T08:27:33.497Z,2864
2017-09-17T08:28:48.322Z,2584
2017-09-17T08:30:04.687Z,2988
2017-09-17T08:31:21.008Z,2672
2017-09-17T08:32:34.778Z,2784
2017-09-17T08:33:49.988Z,3572
2017-09-17T08:35:04.396Z,3096
2017-09-17T08:36:18.814Z,2884
2017-09-17T08:37:33.158Z,2848
2017-09-17T08:38:47.656Z,2524
2017-09-17T08:40:02.438Z,2864
2017-09-17T08:41:16.934Z,2704
2017-09-17T08:42:31.709Z,3012
2017-09-17T08:43:45.394Z,3228
2017-09-17T08:45:00.199Z,3180
2017-09-17T08:46:16.234Z,4264
2017-09-17T08:47:31.247Z,4164
2017-09-17T08:48:44.967Z,4396
2017-09-17T08:50:00.177Z,4304
2017-09-17T08:51:15.022Z,3428
2017-09-17T08:52:29.357Z,3268
2017-09-17T08:53:45.520Z,3708
2017-09-17T08:54:59.351Z,3440
2017-09-17T08:56:12.990Z,4344
2017-09-17T08:57:27.388Z,4980
2017-09-17T08:58:43.487Z,4684
2017-09-17T08:59:58.975Z,3956
2017-09-17T09:01:54.745Z,3804
2017-09-17T09:03:10.374Z,3472
2017-09-17T09:04:24.779Z,3328
2017-09-17T09:05:38.700Z,3192
2017-09-17T09:06:54.202Z,3344
2017-09-17T09:08:12.315Z,3576
2017-09-17T09:09:26.982Z,3388
2017-09-17T09:10:40.646Z,3572
2017-09-17T09:12:00.510Z,3260
2017-09-17T09:13:15.783Z,2924
2017-09-17T09:14:30.422Z,2660
2017-09-17T09:15:45.239Z,2728
2017-09-17T09:16:59.471Z,3172
2017-09-17T09:18:13.998Z,4544
2017-09-17T09:19:29.420Z,4804
2017-09-17T09:20:43.510Z,4924
2017-09-17T09:21:58.636Z,4476
2017-09-17T09:23:34.965Z,3864
2017-09-17T09:24:57.107Z,3592
2017-09-17T09:26:13.468Z,3684
2017-09-17T09:27:32.705Z,4236
2017-09-17T09:28:51.460Z,4728
2017-09-17T09:30:06.184Z,5980
2017-09-17T09:31:21.584Z,5900
2017-09-17T09:32:36.657Z,5488
2017-09-17T09:33:51.328Z,5532
2017-09-17T09:35:06.858Z,6356
2017-09-17T09:36:21.637Z,6104
2017-09-17T09:37:35.498Z,5788
2017-09-17T09:38:49.236Z,6092
2017-09-17T09:40:03.530Z,5716
2017-09-17T09:41:17.196Z,5760
2017-09-17T09:42:31.323Z,5900
2017-09-17T09:43:45.019Z,5612
2017-09-17T09:44:58.956Z,6012
2017-09-17T09:46:12.646Z,6532
2017-09-17T09:47:26.703Z,5976
2017-09-17T09:48:40.739Z,5604
2017-09-17T09:49:54.559Z,5648
2017-09-17T09:51:15.274Z,5236
2017-09-17T09:52:35.881Z,4472
2017-09-17T09:53:50.654Z,4636
2017-09-17T09:55:08.873Z,4624
2017-09-17T09:56:22.503Z,5036
2017-09-17T09:57:36.302Z,5292
2017-09-17T09:58:51.243Z,5008
2017-09-17T10:00:06.124Z,4572
2017-09-17T10:01:24.027Z,4488
2017-09-17T10:02:50.946Z,5660
2017-09-17T10:04:08.001Z,5992
2017-09-17T10:05:24.577Z,6108
2017-09-17T10:06:38.909Z,5756
2017-09-17T10:07:53.187Z,5264
2017-09-17T10:09:07.107Z,4944
2017-09-17T10:10:20.780Z,4820
2017-09-17T10:11:34.497Z,5460
2017-09-17T10:12:48.756Z,5488
2017-09-17T10:14:03.861Z,5332
2017-09-17T10:15:18.975Z,4976
2017-09-17T10:16:33.077Z,4748
2017-09-17T10:17:47.575Z,5124
2017-09-17T10:19:01.311Z,4340
2017-09-17T10:20:15.383Z,4332
2017-09-17T10:21:29.553Z,4696
2017-09-17T10:22:44.253Z,4988
2017-09-17T10:23:57.948Z,5336
2017-09-17T10:25:12.323Z,5204
2017-09-17T10:26:26.009Z,4944
2017-09-17T10:27:45.714Z,4644
2017-09-17T10:28:59.496Z,4584
2017-09-17T10:30:13.488Z,4556
2017-09-17T10:31:29.700Z,4468
2017-09-17T10:32:43.851Z,4568
2017-09-17T10:33:58.749Z,5036
2017-09-17T10:35:13.743Z,5700
2017-09-17T10:36:29.653Z,6204
2017-09-17T10:37:44.515Z,5380
2017-09-17T10:38:58.686Z,4508
2017-09-17T10:40:13.433Z,3924
2017-09-17T10:41:27.691Z,3740
2017-09-17T10:42:44.989Z,3760
2017-09-17T10:43:59.035Z,3688
2017-09-17T10:45:14.544Z,3528
2017-09-17T10:46:28.614Z,3620
2017-09-17T10:47:43.145Z,3452
2017-09-17T10:48:58.021Z,3336
2017-09-17T10:50:12.450Z,3904
2017-09-17T10:51:27.223Z,3436
2017-09-17T10:52:41.304Z,2660
2017-09-17T10:54:00.271Z,2140
2017-09-17T10:55:20.115Z,1924
2017-09-17T10:56:34.201Z,2040
2017-09-17T10:57:48.004Z,2212
2017-09-17T10:59:01.762Z,2508
2017-09-17T11:00:15.698Z,2832
2017-09-17T11:01:29.614Z,2552
2017-09-17T11:02:43.440Z,2284
2017-09-17T11:03:57.451Z,2160
2017-09-17T11:05:11.553Z,2192
2017-09-17T11:06:26.044Z,2392
2017-09-17T11:07:40.383Z,2436
2017-09-17T11:08:54.709Z,2180
2017-09-17T11:10:09.036Z,2408
2017-09-17T11:11:23.081Z,2348
2017-09-17T11:12:37.134Z,2780
2017-09-17T11:13:51.331Z,2672
2017-09-17T11:15:06.045Z,2392
2017-09-17T11:16:20.108Z,2576
2017-09-17T11:17:34.647Z,2532
2017-09-17T11:18:48.479Z,2752
2017-09-17T11:20:03.416Z,2956
2017-09-17T11:21:17.681Z,3440
2017-09-17T11:22:31.462Z,3496
2017-09-17T11:23:46.052Z,2736
2017-09-17T11:25:00.470Z,2340
2017-09-17T11:26:15.416Z,2208
2017-09-17T11:27:29.263Z,2352
2017-09-17T11:28:43.387Z,2348
2017-09-17T11:29:57.160Z,2316
2017-09-17T11:31:10.765Z,2360
2017-09-17T11:32:24.824Z,2352
2017-09-17T11:33:39.456Z,2096
2017-09-17T11:34:53.518Z,1892
2017-09-17T11:36:17.259Z,2100
2017-09-17T11:37:32.160Z,2072
2017-09-17T11:38:51.428Z,2068
2017-09-17T11:40:05.061Z,2040
2017-09-17T11:41:21.362Z,2024
2017-09-17T11:42:36.337Z,2044
2017-09-17T11:43:50.160Z,2104
2017-09-17T11:45:04.637Z,2148
2017-09-17T11:46:19.690Z,2160
2017-09-17T11:47:40.967Z,2104
2017-09-17T11:48:56.903Z,2040
2017-09-17T11:50:10.707Z,2016
2017-09-17T11:51:25.345Z,2016
2017-09-17T11:52:39.167Z,2004
2017-09-17T11:54:05.135Z,1976
2017-09-17T11:55:30.291Z,1976
2017-09-17T11:56:52.982Z,1964
2017-09-17T11:58:07.514Z,1976
2017-09-17T11:59:21.691Z,1968
2017-09-17T12:00:39.095Z,1964
2017-09-17T12:01:53.115Z,1956
2017-09-17T12:03:08.569Z,1952
2017-09-17T12:05:10.471Z,1972
2017-09-17T12:06:30.042Z,1976
2017-09-17T12:07:50.920Z,2016
2017-09-17T12:09:08.113Z,2020
2017-09-17T12:10:45.768Z,2036
2017-09-17T12:12:00.968Z,2032
2017-09-17T12:13:15.467Z,2024
2017-09-17T12:14:29.748Z,2004
2017-09-17T12:15:43.456Z,2008
2017-09-17T12:16:57.561Z,2104
2017-09-17T12:18:15.455Z,2076
2017-09-17T12:19:30.266Z,2004
2017-09-17T12:20:47.135Z,1996
2017-09-17T12:22:03.776Z,2016
2017-09-17T12:23:19.523Z,2032
2017-09-17T12:24:35.374Z,2036
2017-09-17T12:25:57.416Z,2048
2017-09-17T12:27:19.870Z,2008
2017-09-17T12:28:53.557Z,2012
2017-09-17T12:30:09.444Z,2036
2017-09-17T12:31:23.627Z,2048
2017-09-17T12:32:38.442Z,2056
2017-09-17T12:33:52.879Z,2132
2017-09-17T12:35:07.229Z,2260
2017-09-17T12:36:21.029Z,2168
2017-09-17T12:37:36.421Z,2124
2017-09-17T12:38:51.251Z,2152
2017-09-17T12:40:05.608Z,2216
2017-09-17T12:41:21.881Z,2208
2017-09-17T12:42:36.914Z,2168
2017-09-17T12:43:51.633Z,2168
2017-09-17T12:45:07.187Z,2484
2017-09-17T12:46:48.724Z,2720
2017-09-17T12:48:02.700Z,2800
2017-09-17T12:49:16.513Z,2752
2017-09-17T12:50:37.198Z,2584
2017-09-17T12:51:52.909Z,2424
2017-09-17T12:53:09.175Z,2324
2017-09-17T12:54:24.048Z,2252
2017-09-17T12:55:39.578Z,2188
2017-09-17T12:56:54.233Z,2152
2017-09-17T12:58:09.486Z,2152
2017-09-17T12:59:28.204Z,2124
2017-09-17T13:00:43.366Z,2128
2017-09-17T13:01:57.411Z,2184
2017-09-17T13:03:12.373Z,2232
2017-09-17T13:04:39.839Z,2284
2017-09-17T13:05:56.404Z,2348
2017-09-17T13:07:16.354Z,2364
2017-09-17T13:08:30.931Z,2332
2017-09-17T13:09:44.713Z,2300
2017-09-17T13:10:58.398Z,2328
2017-09-17T13:12:14.034Z,2328
2017-09-17T13:13:36.929Z,2320
2017-09-17T13:15:48.039Z,2252
2017-09-17T13:17:05.654Z,2392
2017-09-17T13:18:25.531Z,2212
2017-09-17T13:19:48.920Z,2164
2017-09-17T13:21:06.591Z,2172
2017-09-17T13:22:20.751Z,2188
2017-09-17T13:23:35.608Z,2204
2017-09-17T13:24:50.435Z,2256
2017-09-17T13:26:18.159Z,2276
2017-09-17T13:27:37.901Z,2300
2017-09-17T13:28:57.713Z,2332
2017-09-17T13:30:20.151Z,2372
2017-09-17T13:31:54.843Z,2484
2017-09-17T13:33:09.814Z,2600
2017-09-17T13:34:31.236Z,2688
2017-09-17T13:35:48.752Z,2632
2017-09-17T13:37:05.045Z,2768
2017-09-17T13:38:18.979Z,3248
2017-09-17T13:39:33.650Z,3620
2017-09-17T13:40:48.554Z,3604
2017-09-17T13:42:02.223Z,3788
2017-09-17T13:43:16.359Z,4052
2017-09-17T13:44:30.083Z,4312
2017-09-17T13:45:45.217Z,4260
2017-09-17T13:47:00.497Z,4172
2017-09-17T13:48:15.070Z,4376
2017-09-17T13:49:29.480Z,4492
2017-09-17T13:50:43.800Z,4300
2017-09-17T13:51:58.769Z,4024
2017-09-17T13:53:13.401Z,3736
2017-09-17T13:54:27.590Z,3604
2017-09-17T13:55:47.605Z,3444
2017-09-17T13:57:05.518Z,3224
2017-09-17T13:58:20.228Z,2904
2017-09-17T13:59:34.539Z,2712
2017-09-17T14:00:51.642Z,2492
2017-09-17T14:02:09.132Z,2484
2017-09-17T14:03:23.983Z,2560
2017-09-17T14:04:38.252Z,2688
2017-09-17T14:05:54.911Z,2468
2017-09-17T14:07:10.408Z,2440
2017-09-17T14:08:25.422Z,2592
2017-09-17T14:09:40.090Z,2648
2017-09-17T14:10:54.018Z,2744
2017-09-17T14:12:11.197Z,2816
2017-09-17T14:13:26.716Z,2868
2017-09-17T14:14:42.186Z,2916
2017-09-17T14:15:56.262Z,2948
2017-09-17T14:17:12.329Z,3232
2017-09-17T14:18:27.024Z,3744
2017-09-17T14:19:41.326Z,4712
2017-09-17T14:21:15.844Z,4132
2017-09-17T14:22:30.636Z,3676
2017-09-17T14:23:45.962Z,3416
2017-09-17T14:25:00.571Z,3196
2017-09-17T14:26:16.958Z,2984
2017-09-17T14:27:34.935Z,2856
2017-09-17T14:28:50.050Z,2748
2017-09-17T14:31:15.859Z,2900
2017-09-17T14:32:33.298Z,2844
2017-09-17T14:33:51.581Z,2736
2017-09-17T14:35:05.800Z,2432
2017-09-17T14:36:20.074Z,2380
2017-09-17T14:37:38.317Z,2292
2017-09-17T14:38:57.482Z,2228
2017-09-17T14:40:17.147Z,2220
2017-09-17T14:41:31.953Z,2184
2017-09-17T14:42:45.572Z,2040
2017-09-17T14:43:59.348Z,2012
2017-09-17T14:45:13.861Z,1932
2017-09-17T14:46:29.427Z,1852
2017-09-17T14:47:49.300Z,1692
2017-09-17T14:49:07.802Z,1564
2017-09-17T14:50:23.331Z,1496
2017-09-17T14:51:37.339Z,1484
2017-09-17T14:52:51.995Z,1484
2017-09-17T14:54:11.046Z,1440
2017-09-17T14:55:26.941Z,1412
2017-09-17T14:56:40.604Z,1380
2017-09-17T14:57:55.946Z,1372
2017-09-17T14:59:10.109Z,1392
2017-09-17T15:00:24.471Z,1440
2017-09-17T15:01:38.999Z,1460
2017-09-17T15:02:54.471Z,1484
2017-09-17T15:04:08.487Z,1496
2017-09-17T15:05:22.571Z,1472
2017-09-17T15:06:37.077Z,1460
2017-09-17T15:07:51.810Z,1544
2017-09-17T15:09:07.583Z,1636
2017-09-17T15:10:21.326Z,1764
2017-09-17T15:11:35.264Z,1848
2017-09-17T15:12:49.430Z,1864
2017-09-17T15:14:03.620Z,1804
2017-09-17T15:17:45.964Z,1488
2017-09-17T15:19:01.329Z,1384
2017-09-17T15:20:16.369Z,1296
2017-09-17T16:43:36.874Z,748
2017-09-17T16:44:54.395Z,652
2017-09-17T16:46:08.088Z,576
2017-09-17T16:47:22.764Z,524
2017-09-17T16:48:37.495Z,484
2017-09-17T16:49:51.482Z,448
2017-09-17T16:51:05.351Z,412
2017-09-17T16:52:21.158Z,396
2017-09-17T16:53:36.640Z,396
2017-09-17T16:54:51.127Z,392
2017-09-17T16:56:07.219Z,372
2017-09-17T16:57:25.879Z,328
2017-09-17T16:58:43.007Z,304
2017-09-17T17:00:03.628Z,292
2017-09-17T17:01:37.546Z,292
2017-09-17T17:02:57.798Z,292
2017-09-17T17:04:20.054Z,284
2017-09-17T17:05:36.896Z,276
2017-09-17T17:06:50.797Z,264
2017-09-17T17:08:06.075Z,256
2017-09-17T17:09:20.228Z,240
2017-09-17T17:10:33.930Z,232
2017-09-17T17:11:47.552Z,228
2017-09-17T17:13:01.730Z,224
2017-09-17T17:14:15.410Z,220
2017-09-17T17:15:31.270Z,208
2017-09-17T17:16:46.637Z,200
2017-09-17T17:18:00.468Z,188
2017-09-17T17:19:15.475Z,172
2017-09-17T17:20:29.978Z,160
2017-09-17T17:21:45.253Z,148
2017-09-17T17:23:03.161Z,136
2017-09-17T17:24:17.918Z,128
2017-09-17T17:25:33.204Z,120
2017-09-17T17:26:47.466Z,112
2017-09-17T17:28:01.477Z,100
2017-09-17T17:29:16.956Z,92
2017-09-17T17:30:30.765Z,84
2017-09-17T17:31:45.941Z,76
2017-09-17T17:33:05.898Z,64
2017-09-17T17:34:21.580Z,60
2017-09-17T17:35:39.123Z,52
2017-09-17T17:36:54.376Z,44
2017-09-17T17:38:08.633Z,40
2017-09-17T17:39:22.872Z,36
2017-09-17T17:40:36.864Z,32
2017-09-17T17:41:50.953Z,24
2017-09-17T17:43:05.000Z,20
2017-09-17T17:44:23.514Z,16
2017-09-17T17:45:37.993Z,16
2017-09-17T17:46:52.028Z,12
2017-09-17T17:48:05.620Z,12
2017-09-17T17:49:20.707Z,8
2017-09-17T17:50:34.333Z,8
2017-09-17T17:51:47.982Z,4
2017-09-17T17:53:01.893Z,4
2017-09-17T17:54:16.052Z,4
2017-09-17T17:55:30.316Z,4
2017-09-17T17:56:44.546Z,4
2017-09-17T17:57:59.725Z,0
2017-09-17T17:59:13.959Z,0
2017-09-17T18:00:28.354Z,0
2017-09-17T18:01:44.267Z,0
2017-09-17T18:02:58.477Z,0
2017-09-17T18:04:12.639Z,0
2017-09-17T18:05:26.313Z,0
2017-09-17T18:06:41.081Z,0
2017-09-17T18:07:57.190Z,0
2017-09-17T18:09:11.161Z,0
2017-09-17T18:10:28.796Z,0
2017-09-17T18:11:44.048Z,0
2017-09-17T18:12:57.697Z,0
2017-09-17T18:14:17.860Z,0
2017-09-17T18:15:33.880Z,0
2017-09-17T18:16:49.133Z,0
2017-09-17T18:18:04.083Z,0
2017-09-17T18:19:21.027Z,0
2017-09-17T18:21:08.671Z,0
2017-09-17T18:22:27.917Z,0
2017-09-17T18:23:42.806Z,0
2017-09-17T18:24:57.466Z,0
2017-09-17T18:26:13.336Z,0
2017-09-17T18:27:28.488Z,0
2017-09-17T18:28:42.523Z,0
2017-09-17T18:29:58.053Z,0
2017-09-17T18:31:47.191Z,0
2017-09-17T18:33:04.532Z,0
2017-09-17T18:34:21.211Z,0
2017-09-17T18:35:34.922Z,0
2017-09-17T18:36:48.911Z,0
2017-09-17T18:38:02.843Z,0
2017-09-17T18:39:17.502Z,0
2017-09-17T18:40:31.691Z,0
2017-09-17T18:41:50.992Z,0
2017-09-17T18:43:05.772Z,0
2017-09-17T18:44:19.469Z,0
2017-09-17T18:45:35.036Z,0
2017-09-17T18:46:50.566Z,0
2017-09-17T18:48:25.239Z,0
2017-09-17T18:49:56.240Z,0
2017-09-17T18:51:26.435Z,0
2017-09-17T18:52:40.387Z,0